sensor_id;sensor_type;location;lat;lon;timestamp;P1;durP1;ratioP1;P2;durP2;ratioP2
12869;SDS011;6503;48.572;13.460;2024-02-04T00:02:02;7.05;;;5.05;;
12869;SDS011;6503;48.572;13.460;2024-02-04T00:04:34;5.88;;;4.55;;
12869;SDS011;6503;48.572;13.460;2024-02-04T00:09:46;7.05;;;4.80;;
12869;SDS011;6503;48.572;13.460;2024-02-04T00:12:21;6.57;;;4.93;;
12869;SDS011;6503;48.572;13.460;2024-02-04T00:14:49;4.95;;;3.83;;
12869;SDS011;6503;48.572;13.460;2024-02-04T00:17:23;6.60;;;3.50;;
12869;SDS011;6503;48.572;13.460;2024-02-04T00:19:58;6.40;;;3.85;;
12869;SDS011;6503;48.572;13.460;2024-02-04T00:22:26;5.47;;;4.00;;
12869;SDS011;6503;48.572;13.460;2024-02-04T00:24:56;7.50;;;4.63;;
12869;SDS011;6503;48.572;13.460;2024-02-04T00:27:31;6.82;;;4.80;;
12869;SDS011;6503;48.572;13.460;2024-02-04T00:30:33;4.75;;;3.95;;
12869;SDS011;6503;48.572;13.460;2024-02-04T00:33:06;4.75;;;4.05;;
12869;SDS011;6503;48.572;13.460;2024-02-04T00:35:54;6.65;;;4.70;;
12869;SDS011;6503;48.572;13.460;2024-02-04T00:38:29;5.22;;;4.47;;
12869;SDS011;6503;48.572;13.460;2024-02-04T00:41:02;5.15;;;4.38;;
12869;SDS011;6503;48.572;13.460;2024-02-04T00:43:42;6.80;;;4.68;;
12869;SDS011;6503;48.572;13.460;2024-02-04T00:46:13;7.07;;;4.13;;
12869;SDS011;6503;48.572;13.460;2024-02-04T00:48:53;5.30;;;4.35;;
12869;SDS011;6503;48.572;13.460;2024-02-04T00:51:25;6.55;;;4.57;;
12869;SDS011;6503;48.572;13.460;2024-02-04T00:54:02;5.60;;;4.18;;
12869;SDS011;6503;48.572;13.460;2024-02-04T00:56:33;4.97;;;4.00;;
12869;SDS011;6503;48.572;13.460;2024-02-04T00:59:14;5.35;;;3.97;;
12869;SDS011;6503;48.572;13.460;2024-02-04T01:01:44;5.10;;;4.05;;
12869;SDS011;6503;48.572;13.460;2024-02-04T01:04:24;4.97;;;4.20;;
12869;SDS011;6503;48.572;13.460;2024-02-04T01:07:22;8.15;;;4.57;;
12869;SDS011;6503;48.572;13.460;2024-02-04T01:09:56;5.78;;;5.10;;
12869;SDS011;6503;48.572;13.460;2024-02-04T01:12:31;5.63;;;4.82;;
12869;SDS011;6503;48.572;13.460;2024-02-04T01:14:59;6.28;;;5.03;;
12869;SDS011;6503;48.572;13.460;2024-02-04T01:19:57;6.95;;;3.80;;
12869;SDS011;6503;48.572;13.460;2024-02-04T01:24:56;7.43;;;4.63;;
12869;SDS011;6503;48.572;13.460;2024-02-04T01:27:28;4.75;;;4.13;;
12869;SDS011;6503;48.572;13.460;2024-02-04T01:29:59;4.90;;;3.63;;
12869;SDS011;6503;48.572;13.460;2024-02-04T01:35:18;4.30;;;3.85;;
12869;SDS011;6503;48.572;13.460;2024-02-04T01:37:59;5.68;;;4.20;;
12869;SDS011;6503;48.572;13.460;2024-02-04T01:40:42;4.25;;;3.75;;
12869;SDS011;6503;48.572;13.460;2024-02-04T01:43:11;4.57;;;3.58;;
12869;SDS011;6503;48.572;13.460;2024-02-04T01:45:38;6.05;;;3.53;;
12869;SDS011;6503;48.572;13.460;2024-02-04T01:48:12;4.43;;;3.80;;
12869;SDS011;6503;48.572;13.460;2024-02-04T01:50:57;4.82;;;3.88;;
12869;SDS011;6503;48.572;13.460;2024-02-04T01:53:30;5.05;;;4.13;;
12869;SDS011;6503;48.572;13.460;2024-02-04T01:59:02;4.95;;;3.72;;
12869;SDS011;6503;48.572;13.460;2024-02-04T02:01:31;6.63;;;4.65;;
12869;SDS011;6503;48.572;13.460;2024-02-04T02:03:59;5.72;;;4.07;;
12869;SDS011;6503;48.572;13.460;2024-02-04T02:06:27;5.50;;;4.55;;
12869;SDS011;6503;48.572;13.460;2024-02-04T02:08:55;4.70;;;3.67;;
12869;SDS011;6503;48.572;13.460;2024-02-04T02:11:35;4.50;;;3.53;;
12869;SDS011;6503;48.572;13.460;2024-02-04T02:17:03;5.65;;;4.40;;
12869;SDS011;6503;48.572;13.460;2024-02-04T02:19:50;5.00;;;4.50;;
12869;SDS011;6503;48.572;13.460;2024-02-04T02:22:26;6.80;;;4.03;;
12869;SDS011;6503;48.572;13.460;2024-02-04T02:25:09;4.20;;;3.80;;
12869;SDS011;6503;48.572;13.460;2024-02-04T02:27:49;6.05;;;4.80;;
12869;SDS011;6503;48.572;13.460;2024-02-04T02:30:20;5.35;;;4.38;;
12869;SDS011;6503;48.572;13.460;2024-02-04T02:32:56;4.65;;;3.92;;
12869;SDS011;6503;48.572;13.460;2024-02-04T02:35:35;5.75;;;4.35;;
12869;SDS011;6503;48.572;13.460;2024-02-04T02:38:18;4.60;;;3.88;;
12869;SDS011;6503;48.572;13.460;2024-02-04T02:40:58;5.07;;;4.15;;
12869;SDS011;6503;48.572;13.460;2024-02-04T02:43:26;5.28;;;4.78;;
12869;SDS011;6503;48.572;13.460;2024-02-04T02:46:00;7.18;;;5.57;;
12869;SDS011;6503;48.572;13.460;2024-02-04T02:48:31;6.25;;;5.18;;
12869;SDS011;6503;48.572;13.460;2024-02-04T02:51:01;9.90;;;5.45;;
12869;SDS011;6503;48.572;13.460;2024-02-04T02:53:31;6.47;;;5.20;;
12869;SDS011;6503;48.572;13.460;2024-02-04T02:56:06;8.02;;;4.18;;
12869;SDS011;6503;48.572;13.460;2024-02-04T02:58:41;5.45;;;4.10;;
12869;SDS011;6503;48.572;13.460;2024-02-04T03:01:16;4.65;;;4.10;;
12869;SDS011;6503;48.572;13.460;2024-02-04T03:03:49;6.10;;;3.88;;
12869;SDS011;6503;48.572;13.460;2024-02-04T03:06:17;5.85;;;4.55;;
12869;SDS011;6503;48.572;13.460;2024-02-04T03:08:48;5.22;;;4.72;;
12869;SDS011;6503;48.572;13.460;2024-02-04T03:11:22;5.65;;;4.28;;
12869;SDS011;6503;48.572;13.460;2024-02-04T03:13:55;5.93;;;4.50;;
12869;SDS011;6503;48.572;13.460;2024-02-04T03:16:26;5.70;;;4.03;;
12869;SDS011;6503;48.572;13.460;2024-02-04T03:18:54;5.20;;;4.03;;
12869;SDS011;6503;48.572;13.460;2024-02-04T03:21:27;4.07;;;3.67;;
12869;SDS011;6503;48.572;13.460;2024-02-04T03:23:56;7.75;;;3.92;;
12869;SDS011;6503;48.572;13.460;2024-02-04T03:26:25;5.05;;;3.83;;
12869;SDS011;6503;48.572;13.460;2024-02-04T03:28:55;4.80;;;4.28;;
12869;SDS011;6503;48.572;13.460;2024-02-04T03:31:29;5.47;;;3.88;;
12869;SDS011;6503;48.572;13.460;2024-02-04T03:33:57;6.50;;;4.07;;
12869;SDS011;6503;48.572;13.460;2024-02-04T03:36:24;4.00;;;3.53;;
12869;SDS011;6503;48.572;13.460;2024-02-04T03:38:52;4.35;;;3.67;;
12869;SDS011;6503;48.572;13.460;2024-02-04T03:41:21;6.72;;;3.60;;
12869;SDS011;6503;48.572;13.460;2024-02-04T03:43:50;6.05;;;4.13;;
12869;SDS011;6503;48.572;13.460;2024-02-04T03:46:17;6.60;;;4.22;;
12869;SDS011;6503;48.572;13.460;2024-02-04T03:48:45;8.55;;;3.80;;
12869;SDS011;6503;48.572;13.460;2024-02-04T03:51:39;5.22;;;4.00;;
12869;SDS011;6503;48.572;13.460;2024-02-04T03:54:09;4.13;;;3.50;;
12869;SDS011;6503;48.572;13.460;2024-02-04T03:56:39;6.13;;;3.97;;
12869;SDS011;6503;48.572;13.460;2024-02-04T03:59:19;5.72;;;4.25;;
12869;SDS011;6503;48.572;13.460;2024-02-04T04:01:48;13.57;;;4.70;;
12869;SDS011;6503;48.572;13.460;2024-02-04T04:04:20;6.35;;;4.20;;
12869;SDS011;6503;48.572;13.460;2024-02-04T04:06:47;7.10;;;4.57;;
12869;SDS011;6503;48.572;13.460;2024-02-04T04:09:16;6.85;;;4.97;;
12869;SDS011;6503;48.572;13.460;2024-02-04T04:11:47;7.65;;;5.35;;
12869;SDS011;6503;48.572;13.460;2024-02-04T04:14:37;6.63;;;5.15;;
12869;SDS011;6503;48.572;13.460;2024-02-04T04:17:12;7.78;;;5.55;;
12869;SDS011;6503;48.572;13.460;2024-02-04T04:19:46;7.15;;;5.75;;
12869;SDS011;6503;48.572;13.460;2024-02-04T04:22:15;6.30;;;4.95;;
12869;SDS011;6503;48.572;13.460;2024-02-04T04:24:48;10.15;;;6.15;;
12869;SDS011;6503;48.572;13.460;2024-02-04T04:27:22;9.45;;;5.55;;
12869;SDS011;6503;48.572;13.460;2024-02-04T04:30:13;6.53;;;5.22;;
12869;SDS011;6503;48.572;13.460;2024-02-04T04:32:47;7.22;;;5.53;;
12869;SDS011;6503;48.572;13.460;2024-02-04T04:35:39;8.73;;;5.47;;
12869;SDS011;6503;48.572;13.460;2024-02-04T04:38:38;7.13;;;5.60;;
12869;SDS011;6503;48.572;13.460;2024-02-04T04:41:19;6.22;;;4.97;;
12869;SDS011;6503;48.572;13.460;2024-02-04T04:43:48;6.80;;;5.03;;
12869;SDS011;6503;48.572;13.460;2024-02-04T04:46:28;7.28;;;4.75;;
12869;SDS011;6503;48.572;13.460;2024-02-04T04:49:12;7.80;;;4.68;;
12869;SDS011;6503;48.572;13.460;2024-02-04T04:51:39;7.00;;;4.80;;
12869;SDS011;6503;48.572;13.460;2024-02-04T04:54:27;6.90;;;5.67;;
12869;SDS011;6503;48.572;13.460;2024-02-04T04:57:04;6.72;;;5.00;;
12869;SDS011;6503;48.572;13.460;2024-02-04T05:00:06;6.65;;;5.50;;
12869;SDS011;6503;48.572;13.460;2024-02-04T05:02:36;6.78;;;4.95;;
12869;SDS011;6503;48.572;13.460;2024-02-04T05:05:03;5.78;;;4.90;;
12869;SDS011;6503;48.572;13.460;2024-02-04T05:07:31;7.10;;;4.95;;
12869;SDS011;6503;48.572;13.460;2024-02-04T05:09:59;7.43;;;5.35;;
12869;SDS011;6503;48.572;13.460;2024-02-04T05:12:27;7.05;;;5.22;;
12869;SDS011;6503;48.572;13.460;2024-02-04T05:14:54;6.32;;;5.40;;
12869;SDS011;6503;48.572;13.460;2024-02-04T05:17:23;6.15;;;5.07;;
12869;SDS011;6503;48.572;13.460;2024-02-04T05:19:50;6.47;;;5.13;;
12869;SDS011;6503;48.572;13.460;2024-02-04T05:22:17;6.38;;;4.47;;
12869;SDS011;6503;48.572;13.460;2024-02-04T05:24:45;5.45;;;4.75;;
12869;SDS011;6503;48.572;13.460;2024-02-04T05:27:12;6.20;;;5.05;;
12869;SDS011;6503;48.572;13.460;2024-02-04T05:29:40;6.18;;;5.35;;
12869;SDS011;6503;48.572;13.460;2024-02-04T05:32:07;5.75;;;4.80;;
12869;SDS011;6503;48.572;13.460;2024-02-04T05:34:36;5.90;;;4.45;;
12869;SDS011;6503;48.572;13.460;2024-02-04T05:37:04;5.88;;;4.70;;
12869;SDS011;6503;48.572;13.460;2024-02-04T05:39:33;7.75;;;5.28;;
12869;SDS011;6503;48.572;13.460;2024-02-04T05:42:00;7.20;;;5.13;;
12869;SDS011;6503;48.572;13.460;2024-02-04T05:44:28;5.93;;;5.18;;
12869;SDS011;6503;48.572;13.460;2024-02-04T05:46:55;7.65;;;4.50;;
12869;SDS011;6503;48.572;13.460;2024-02-04T05:49:23;6.57;;;4.80;;
12869;SDS011;6503;48.572;13.460;2024-02-04T05:51:53;8.77;;;5.22;;
12869;SDS011;6503;48.572;13.460;2024-02-04T05:54:20;6.10;;;5.07;;
12869;SDS011;6503;48.572;13.460;2024-02-04T05:56:48;6.20;;;4.78;;
12869;SDS011;6503;48.572;13.460;2024-02-04T05:59:16;6.15;;;4.72;;
12869;SDS011;6503;48.572;13.460;2024-02-04T06:01:44;8.40;;;5.80;;
12869;SDS011;6503;48.572;13.460;2024-02-04T06:04:12;5.65;;;4.55;;
12869;SDS011;6503;48.572;13.460;2024-02-04T06:06:40;6.63;;;5.10;;
12869;SDS011;6503;48.572;13.460;2024-02-04T06:09:09;5.82;;;5.05;;
12869;SDS011;6503;48.572;13.460;2024-02-04T06:11:38;6.93;;;4.65;;
12869;SDS011;6503;48.572;13.460;2024-02-04T06:14:06;6.30;;;5.03;;
12869;SDS011;6503;48.572;13.460;2024-02-04T06:16:34;7.95;;;4.88;;
12869;SDS011;6503;48.572;13.460;2024-02-04T06:19:02;7.47;;;5.10;;
12869;SDS011;6503;48.572;13.460;2024-02-04T06:21:29;6.55;;;4.60;;
12869;SDS011;6503;48.572;13.460;2024-02-04T06:23:57;9.25;;;5.28;;
12869;SDS011;6503;48.572;13.460;2024-02-04T06:26:27;7.28;;;5.13;;
12869;SDS011;6503;48.572;13.460;2024-02-04T06:28:54;6.72;;;5.15;;
12869;SDS011;6503;48.572;13.460;2024-02-04T06:31:25;8.45;;;6.25;;
12869;SDS011;6503;48.572;13.460;2024-02-04T06:36:21;9.02;;;5.32;;
12869;SDS011;6503;48.572;13.460;2024-02-04T06:38:48;8.43;;;5.40;;
12869;SDS011;6503;48.572;13.460;2024-02-04T06:41:15;10.70;;;6.45;;
12869;SDS011;6503;48.572;13.460;2024-02-04T06:43:44;8.40;;;6.00;;
12869;SDS011;6503;48.572;13.460;2024-02-04T06:46:12;8.32;;;6.07;;
12869;SDS011;6503;48.572;13.460;2024-02-04T06:48:40;9.07;;;6.40;;
12869;SDS011;6503;48.572;13.460;2024-02-04T06:51:10;7.13;;;5.03;;
12869;SDS011;6503;48.572;13.460;2024-02-04T06:53:37;8.75;;;5.70;;
12869;SDS011;6503;48.572;13.460;2024-02-04T06:56:06;7.90;;;5.80;;
12869;SDS011;6503;48.572;13.460;2024-02-04T06:58:36;6.35;;;5.60;;
12869;SDS011;6503;48.572;13.460;2024-02-04T07:01:05;7.75;;;5.47;;
12869;SDS011;6503;48.572;13.460;2024-02-04T07:03:33;6.68;;;5.22;;
12869;SDS011;6503;48.572;13.460;2024-02-04T07:06:00;9.55;;;5.88;;
12869;SDS011;6503;48.572;13.460;2024-02-04T07:08:28;7.40;;;5.43;;
12869;SDS011;6503;48.572;13.460;2024-02-04T07:10:57;7.53;;;6.00;;
12869;SDS011;6503;48.572;13.460;2024-02-04T07:13:24;9.15;;;5.55;;
12869;SDS011;6503;48.572;13.460;2024-02-04T07:15:52;6.97;;;5.30;;
12869;SDS011;6503;48.572;13.460;2024-02-04T07:18:21;8.57;;;6.70;;
12869;SDS011;6503;48.572;13.460;2024-02-04T07:20:48;6.70;;;5.93;;
12869;SDS011;6503;48.572;13.460;2024-02-04T07:23:16;8.70;;;6.03;;
12869;SDS011;6503;48.572;13.460;2024-02-04T07:25:44;8.48;;;5.43;;
12869;SDS011;6503;48.572;13.460;2024-02-04T07:28:12;6.70;;;5.50;;
12869;SDS011;6503;48.572;13.460;2024-02-04T07:30:39;7.22;;;5.63;;
12869;SDS011;6503;48.572;13.460;2024-02-04T07:33:07;6.63;;;5.32;;
12869;SDS011;6503;48.572;13.460;2024-02-04T07:35:36;5.95;;;4.38;;
12869;SDS011;6503;48.572;13.460;2024-02-04T07:38:04;6.72;;;5.35;;
12869;SDS011;6503;48.572;13.460;2024-02-04T07:40:32;7.03;;;5.10;;
12869;SDS011;6503;48.572;13.460;2024-02-04T07:42:59;7.18;;;5.25;;
12869;SDS011;6503;48.572;13.460;2024-02-04T07:45:27;7.07;;;5.50;;
12869;SDS011;6503;48.572;13.460;2024-02-04T07:47:55;6.40;;;4.97;;
12869;SDS011;6503;48.572;13.460;2024-02-04T07:53:00;6.95;;;5.00;;
12869;SDS011;6503;48.572;13.460;2024-02-04T07:55:28;7.25;;;5.43;;
12869;SDS011;6503;48.572;13.460;2024-02-04T07:57:55;7.05;;;4.97;;
12869;SDS011;6503;48.572;13.460;2024-02-04T08:00:23;6.90;;;4.70;;
12869;SDS011;6503;48.572;13.460;2024-02-04T08:02:50;6.07;;;5.13;;
12869;SDS011;6503;48.572;13.460;2024-02-04T08:05:17;6.47;;;5.20;;
12869;SDS011;6503;48.572;13.460;2024-02-04T08:07:44;6.88;;;5.45;;
12869;SDS011;6503;48.572;13.460;2024-02-04T08:10:15;6.95;;;5.18;;
12869;SDS011;6503;48.572;13.460;2024-02-04T08:12:44;7.03;;;5.72;;
12869;SDS011;6503;48.572;13.460;2024-02-04T08:15:15;8.20;;;5.43;;
12869;SDS011;6503;48.572;13.460;2024-02-04T08:17:43;7.40;;;5.75;;
12869;SDS011;6503;48.572;13.460;2024-02-04T08:20:11;7.95;;;5.65;;
12869;SDS011;6503;48.572;13.460;2024-02-04T08:22:38;7.30;;;5.30;;
12869;SDS011;6503;48.572;13.460;2024-02-04T08:25:06;7.85;;;5.22;;
12869;SDS011;6503;48.572;13.460;2024-02-04T08:27:38;7.35;;;4.95;;
12869;SDS011;6503;48.572;13.460;2024-02-04T08:30:06;7.25;;;5.40;;
12869;SDS011;6503;48.572;13.460;2024-02-04T08:32:36;8.80;;;5.07;;
12869;SDS011;6503;48.572;13.460;2024-02-04T08:35:04;7.93;;;5.53;;
12869;SDS011;6503;48.572;13.460;2024-02-04T08:37:32;7.82;;;5.35;;
12869;SDS011;6503;48.572;13.460;2024-02-04T08:40:01;8.73;;;4.93;;
12869;SDS011;6503;48.572;13.460;2024-02-04T08:42:30;7.85;;;4.82;;
12869;SDS011;6503;48.572;13.460;2024-02-04T08:45:02;6.00;;;4.72;;
12869;SDS011;6503;48.572;13.460;2024-02-04T08:47:32;9.27;;;4.47;;
12869;SDS011;6503;48.572;13.460;2024-02-04T08:50:00;6.63;;;4.05;;
12869;SDS011;6503;48.572;13.460;2024-02-04T08:52:29;7.25;;;4.10;;
12869;SDS011;6503;48.572;13.460;2024-02-04T08:54:57;6.55;;;4.00;;
12869;SDS011;6503;48.572;13.460;2024-02-04T08:57:24;4.95;;;3.50;;
12869;SDS011;6503;48.572;13.460;2024-02-04T08:59:53;4.70;;;3.75;;
12869;SDS011;6503;48.572;13.460;2024-02-04T09:02:23;4.67;;;3.30;;
12869;SDS011;6503;48.572;13.460;2024-02-04T09:04:50;5.10;;;3.28;;
12869;SDS011;6503;48.572;13.460;2024-02-04T09:07:19;5.93;;;3.33;;
12869;SDS011;6503;48.572;13.460;2024-02-04T09:09:48;4.25;;;3.08;;
12869;SDS011;6503;48.572;13.460;2024-02-04T09:12:18;4.82;;;3.03;;
12869;SDS011;6503;48.572;13.460;2024-02-04T09:14:46;4.70;;;3.03;;
12869;SDS011;6503;48.572;13.460;2024-02-04T09:17:14;4.38;;;2.97;;
12869;SDS011;6503;48.572;13.460;2024-02-04T09:20:02;4.55;;;2.95;;
12869;SDS011;6503;48.572;13.460;2024-02-04T09:22:29;6.05;;;3.20;;
12869;SDS011;6503;48.572;13.460;2024-02-04T09:24:57;5.10;;;2.90;;
12869;SDS011;6503;48.572;13.460;2024-02-04T09:27:24;5.25;;;2.78;;
12869;SDS011;6503;48.572;13.460;2024-02-04T09:29:52;8.27;;;2.42;;
12869;SDS011;6503;48.572;13.460;2024-02-04T09:32:20;3.42;;;2.67;;
12869;SDS011;6503;48.572;13.460;2024-02-04T09:34:47;4.28;;;2.70;;
12869;SDS011;6503;48.572;13.460;2024-02-04T09:37:17;7.10;;;3.08;;
12869;SDS011;6503;48.572;13.460;2024-02-04T09:39:45;3.95;;;2.80;;
12869;SDS011;6503;48.572;13.460;2024-02-04T09:42:15;5.53;;;2.90;;
12869;SDS011;6503;48.572;13.460;2024-02-04T09:44:50;3.88;;;2.92;;
12869;SDS011;6503;48.572;13.460;2024-02-04T09:47:17;3.63;;;2.40;;
12869;SDS011;6503;48.572;13.460;2024-02-04T09:49:45;3.83;;;2.55;;
12869;SDS011;6503;48.572;13.460;2024-02-04T09:52:13;3.95;;;2.95;;
12869;SDS011;6503;48.572;13.460;2024-02-04T09:54:44;3.63;;;2.28;;
12869;SDS011;6503;48.572;13.460;2024-02-04T09:57:12;4.72;;;2.78;;
12869;SDS011;6503;48.572;13.460;2024-02-04T09:59:40;5.72;;;2.40;;
12869;SDS011;6503;48.572;13.460;2024-02-04T10:02:12;4.43;;;2.60;;
12869;SDS011;6503;48.572;13.460;2024-02-04T10:04:40;3.75;;;2.78;;
12869;SDS011;6503;48.572;13.460;2024-02-04T10:07:11;3.97;;;2.05;;
12869;SDS011;6503;48.572;13.460;2024-02-04T10:09:39;2.77;;;2.03;;
12869;SDS011;6503;48.572;13.460;2024-02-04T10:12:09;2.58;;;1.77;;
12869;SDS011;6503;48.572;13.460;2024-02-04T10:14:38;5.82;;;2.65;;
12869;SDS011;6503;48.572;13.460;2024-02-04T10:17:06;3.35;;;2.47;;
12869;SDS011;6503;48.572;13.460;2024-02-04T10:19:34;3.97;;;1.95;;
12869;SDS011;6503;48.572;13.460;2024-02-04T10:22:02;2.45;;;1.75;;
12869;SDS011;6503;48.572;13.460;2024-02-04T10:24:31;6.00;;;2.20;;
12869;SDS011;6503;48.572;13.460;2024-02-04T10:26:58;3.95;;;2.22;;
12869;SDS011;6503;48.572;13.460;2024-02-04T10:29:27;5.93;;;2.38;;
12869;SDS011;6503;48.572;13.460;2024-02-04T10:34:22;4.40;;;2.08;;
12869;SDS011;6503;48.572;13.460;2024-02-04T10:36:49;3.42;;;2.42;;
12869;SDS011;6503;48.572;13.460;2024-02-04T10:39:17;2.85;;;2.20;;
12869;SDS011;6503;48.572;13.460;2024-02-04T10:41:49;3.88;;;2.00;;
12869;SDS011;6503;48.572;13.460;2024-02-04T10:44:21;3.75;;;2.15;;
12869;SDS011;6503;48.572;13.460;2024-02-04T10:46:50;2.50;;;1.80;;
12869;SDS011;6503;48.572;13.460;2024-02-04T10:49:19;3.15;;;1.80;;
12869;SDS011;6503;48.572;13.460;2024-02-04T10:51:47;4.07;;;2.17;;
12869;SDS011;6503;48.572;13.460;2024-02-04T10:54:22;3.70;;;2.28;;
12869;SDS011;6503;48.572;13.460;2024-02-04T10:56:56;3.83;;;2.25;;
12869;SDS011;6503;48.572;13.460;2024-02-04T10:59:26;3.17;;;2.00;;
12869;SDS011;6503;48.572;13.460;2024-02-04T11:01:58;2.33;;;1.40;;
12869;SDS011;6503;48.572;13.460;2024-02-04T11:04:27;3.33;;;1.67;;
12869;SDS011;6503;48.572;13.460;2024-02-04T11:06:54;2.95;;;1.85;;
12869;SDS011;6503;48.572;13.460;2024-02-04T11:09:23;4.28;;;1.80;;
12869;SDS011;6503;48.572;13.460;2024-02-04T11:11:51;4.75;;;2.05;;
12869;SDS011;6503;48.572;13.460;2024-02-04T11:16:53;3.28;;;1.60;;
12869;SDS011;6503;48.572;13.460;2024-02-04T11:19:31;2.30;;;1.45;;
12869;SDS011;6503;48.572;13.460;2024-02-04T11:22:09;2.25;;;1.40;;
12869;SDS011;6503;48.572;13.460;2024-02-04T11:24:49;3.38;;;1.50;;
12869;SDS011;6503;48.572;13.460;2024-02-04T11:27:20;2.50;;;1.88;;
12869;SDS011;6503;48.572;13.460;2024-02-04T11:29:48;3.00;;;1.90;;
12869;SDS011;6503;48.572;13.460;2024-02-04T11:32:18;3.30;;;1.83;;
12869;SDS011;6503;48.572;13.460;2024-02-04T11:34:48;3.47;;;1.73;;
12869;SDS011;6503;48.572;13.460;2024-02-04T11:37:15;4.05;;;1.75;;
12869;SDS011;6503;48.572;13.460;2024-02-04T11:44:40;2.78;;;1.70;;
12869;SDS011;6503;48.572;13.460;2024-02-04T11:47:09;2.40;;;1.55;;
12869;SDS011;6503;48.572;13.460;2024-02-04T11:49:36;4.00;;;1.70;;
12869;SDS011;6503;48.572;13.460;2024-02-04T11:52:05;1.98;;;1.55;;
12869;SDS011;6503;48.572;13.460;2024-02-04T11:54:32;2.08;;;1.63;;
12869;SDS011;6503;48.572;13.460;2024-02-04T11:57:00;4.85;;;2.08;;
12869;SDS011;6503;48.572;13.460;2024-02-04T11:59:29;6.60;;;2.30;;
12869;SDS011;6503;48.572;13.460;2024-02-04T12:02:05;4.00;;;2.22;;
12869;SDS011;6503;48.572;13.460;2024-02-04T12:04:32;3.35;;;1.80;;
12869;SDS011;6503;48.572;13.460;2024-02-04T12:07:00;2.80;;;1.90;;
12869;SDS011;6503;48.572;13.460;2024-02-04T12:09:29;4.72;;;2.28;;
12869;SDS011;6503;48.572;13.460;2024-02-04T12:11:57;3.45;;;2.00;;
12869;SDS011;6503;48.572;13.460;2024-02-04T12:14:34;4.45;;;2.42;;
12869;SDS011;6503;48.572;13.460;2024-02-04T12:17:23;6.43;;;2.35;;
12869;SDS011;6503;48.572;13.460;2024-02-04T12:22:38;4.00;;;2.00;;
12869;SDS011;6503;48.572;13.460;2024-02-04T12:25:12;3.33;;;1.90;;
12869;SDS011;6503;48.572;13.460;2024-02-04T12:28:04;3.45;;;2.00;;
12869;SDS011;6503;48.572;13.460;2024-02-04T12:33:34;2.95;;;1.80;;
12869;SDS011;6503;48.572;13.460;2024-02-04T12:36:03;2.47;;;1.75;;
12869;SDS011;6503;48.572;13.460;2024-02-04T12:41:05;3.47;;;2.20;;
12869;SDS011;6503;48.572;13.460;2024-02-04T12:43:32;4.22;;;2.58;;
12869;SDS011;6503;48.572;13.460;2024-02-04T12:46:01;2.45;;;1.52;;
12869;SDS011;6503;48.572;13.460;2024-02-04T12:48:33;2.70;;;1.40;;
12869;SDS011;6503;48.572;13.460;2024-02-04T12:51:01;2.88;;;1.90;;
12869;SDS011;6503;48.572;13.460;2024-02-04T12:53:29;4.85;;;1.83;;
12869;SDS011;6503;48.572;13.460;2024-02-04T12:55:58;2.80;;;1.90;;
12869;SDS011;6503;48.572;13.460;2024-02-04T12:58:27;3.55;;;1.73;;
12869;SDS011;6503;48.572;13.460;2024-02-04T13:03:24;3.00;;;1.77;;
12869;SDS011;6503;48.572;13.460;2024-02-04T13:05:56;2.42;;;1.70;;
12869;SDS011;6503;48.572;13.460;2024-02-04T13:08:25;2.33;;;1.50;;
12869;SDS011;6503;48.572;13.460;2024-02-04T13:11:04;3.40;;;1.55;;
12869;SDS011;6503;48.572;13.460;2024-02-04T13:13:35;2.50;;;1.40;;
12869;SDS011;6503;48.572;13.460;2024-02-04T13:16:05;1.73;;;1.20;;
12869;SDS011;6503;48.572;13.460;2024-02-04T13:18:42;1.83;;;1.20;;
12869;SDS011;6503;48.572;13.460;2024-02-04T13:21:09;2.13;;;1.05;;
12869;SDS011;6503;48.572;13.460;2024-02-04T13:23:38;1.77;;;1.30;;
12869;SDS011;6503;48.572;13.460;2024-02-04T13:26:05;1.90;;;1.13;;
12869;SDS011;6503;48.572;13.460;2024-02-04T13:28:38;5.43;;;1.60;;
12869;SDS011;6503;48.572;13.460;2024-02-04T13:31:05;1.95;;;1.10;;
12869;SDS011;6503;48.572;13.460;2024-02-04T13:33:33;1.48;;;1.00;;
12869;SDS011;6503;48.572;13.460;2024-02-04T13:36:00;1.48;;;1.33;;
12869;SDS011;6503;48.572;13.460;2024-02-04T13:38:27;2.97;;;1.23;;
12869;SDS011;6503;48.572;13.460;2024-02-04T13:40:55;2.30;;;1.52;;
12869;SDS011;6503;48.572;13.460;2024-02-04T13:43:26;1.60;;;0.98;;
12869;SDS011;6503;48.572;13.460;2024-02-04T13:45:55;1.50;;;1.08;;
12869;SDS011;6503;48.572;13.460;2024-02-04T13:48:23;2.00;;;1.35;;
12869;SDS011;6503;48.572;13.460;2024-02-04T13:50:51;1.73;;;0.93;;
12869;SDS011;6503;48.572;13.460;2024-02-04T13:53:19;3.40;;;1.45;;
12869;SDS011;6503;48.572;13.460;2024-02-04T13:55:47;2.28;;;1.17;;
12869;SDS011;6503;48.572;13.460;2024-02-04T13:58:15;1.20;;;0.90;;
12869;SDS011;6503;48.572;13.460;2024-02-04T14:00:57;1.55;;;1.05;;
12869;SDS011;6503;48.572;13.460;2024-02-04T14:03:25;5.47;;;1.10;;
12869;SDS011;6503;48.572;13.460;2024-02-04T14:06:10;2.50;;;0.98;;
12869;SDS011;6503;48.572;13.460;2024-02-04T14:08:55;2.45;;;1.08;;
12869;SDS011;6503;48.572;13.460;2024-02-04T14:11:30;2.45;;;1.05;;
12869;SDS011;6503;48.572;13.460;2024-02-04T14:13:58;2.25;;;1.30;;
12869;SDS011;6503;48.572;13.460;2024-02-04T14:16:28;3.55;;;1.25;;
12869;SDS011;6503;48.572;13.460;2024-02-04T14:21:36;2.67;;;1.40;;
12869;SDS011;6503;48.572;13.460;2024-02-04T14:24:09;2.97;;;1.25;;
12869;SDS011;6503;48.572;13.460;2024-02-04T14:26:43;3.42;;;1.35;;
12869;SDS011;6503;48.572;13.460;2024-02-04T14:29:13;2.38;;;1.33;;
12869;SDS011;6503;48.572;13.460;2024-02-04T14:34:47;2.67;;;0.90;;
12869;SDS011;6503;48.572;13.460;2024-02-04T14:37:14;2.88;;;1.35;;
12869;SDS011;6503;48.572;13.460;2024-02-04T14:39:52;4.07;;;1.20;;
12869;SDS011;6503;48.572;13.460;2024-02-04T14:42:22;1.35;;;0.82;;
12869;SDS011;6503;48.572;13.460;2024-02-04T14:44:49;1.70;;;1.20;;
12869;SDS011;6503;48.572;13.460;2024-02-04T14:47:17;1.20;;;1.02;;
12869;SDS011;6503;48.572;13.460;2024-02-04T14:49:57;4.32;;;0.90;;
12869;SDS011;6503;48.572;13.460;2024-02-04T14:52:35;1.90;;;1.30;;
12869;SDS011;6503;48.572;13.460;2024-02-04T14:55:08;3.07;;;1.60;;
12869;SDS011;6503;48.572;13.460;2024-02-04T14:57:36;1.50;;;1.02;;
12869;SDS011;6503;48.572;13.460;2024-02-04T15:00:42;2.28;;;1.10;;
12869;SDS011;6503;48.572;13.460;2024-02-04T15:03:06;1.60;;;0.80;;
12869;SDS011;6503;48.572;13.460;2024-02-04T15:08:47;1.42;;;1.00;;
12869;SDS011;6503;48.572;13.460;2024-02-04T15:11:24;1.92;;;1.00;;
12869;SDS011;6503;48.572;13.460;2024-02-04T15:14:19;1.30;;;1.00;;
12869;SDS011;6503;48.572;13.460;2024-02-04T15:16:59;1.48;;;1.08;;
12869;SDS011;6503;48.572;13.460;2024-02-04T15:19:47;1.83;;;0.82;;
12869;SDS011;6503;48.572;13.460;2024-02-04T15:22:42;4.70;;;1.77;;
12869;SDS011;6503;48.572;13.460;2024-02-04T15:25:14;2.20;;;1.10;;
12869;SDS011;6503;48.572;13.460;2024-02-04T15:30:41;1.38;;;0.82;;
12869;SDS011;6503;48.572;13.460;2024-02-04T15:33:09;1.98;;;1.13;;
12869;SDS011;6503;48.572;13.460;2024-02-04T15:36:11;1.00;;;0.85;;
12869;SDS011;6503;48.572;13.460;2024-02-04T15:38:51;2.75;;;1.20;;
12869;SDS011;6503;48.572;13.460;2024-02-04T15:41:36;3.55;;;1.05;;
12869;SDS011;6503;48.572;13.460;2024-02-04T15:44:19;3.75;;;0.85;;
12869;SDS011;6503;48.572;13.460;2024-02-04T15:46:48;2.45;;;1.15;;
12869;SDS011;6503;48.572;13.460;2024-02-04T15:49:17;1.60;;;1.13;;
12869;SDS011;6503;48.572;13.460;2024-02-04T15:51:46;1.90;;;1.10;;
12869;SDS011;6503;48.572;13.460;2024-02-04T15:54:14;1.77;;;1.00;;
12869;SDS011;6503;48.572;13.460;2024-02-04T15:56:45;1.08;;;0.82;;
12869;SDS011;6503;48.572;13.460;2024-02-04T15:59:23;1.58;;;0.82;;
12869;SDS011;6503;48.572;13.460;2024-02-04T16:02:12;2.17;;;1.27;;
12869;SDS011;6503;48.572;13.460;2024-02-04T16:04:39;1.45;;;0.90;;
12869;SDS011;6503;48.572;13.460;2024-02-04T16:07:07;1.23;;;0.70;;
12869;SDS011;6503;48.572;13.460;2024-02-04T16:09:44;1.15;;;0.80;;